Time;durP1;ratioP1;P1;durP2;ratioP2;P2;SDS_P1;SDS_P2;PMS_P1;PMS_P2;Temp;Humidity;BMP_temperature;BMP_pressure;BME280_temperature;BME280_humidity;BME280_pressure;Samples;Min_cycle;Max_cycle;Signal;HPM_P1;HPM_P2
2021/03/01 00:04:46;;;;;;;10.50;4.78;;;21.50;47.70;;;;;;21061794;28;20103;-17
2021/03/01 00:14:47;;;;;;;9.30;4.22;;;21.60;46.50;;;;;;21078295;28;20031;-18
2021/03/01 00:24:47;;;;;;;8.35;3.65;;;21.60;46.00;;;;;;21084462;28;20070;-16
2021/03/01 00:34:48;;;;;;;7.18;2.83;;;21.40;45.80;;;;;;21083146;28;20071;-17
2021/03/01 00:44:49;;;;;;;6.07;3.13;;;21.20;46.00;;;;;;21062290;28;20050;-17
2021/03/01 00:54:49;;;;;;;6.03;3.10;;;21.00;46.50;;;;;;21080563;28;20395;-18
2021/03/01 01:04:50;;;;;;;6.80;3.08;;;21.20;46.20;;;;;;21079678;28;20474;-19
2021/03/01 01:14:50;;;;;;;7.50;3.22;;;21.20;46.10;;;;;;21069971;28;20411;-18
2021/03/01 01:24:51;;;;;;;4.97;2.80;;;21.30;45.70;;;;;;21057262;28;20407;-17
2021/03/01 01:34:51;;;;;;;14.05;3.67;;;21.30;45.50;;;;;;21056954;28;20181;-16
2021/03/01 01:44:52;;;;;;;7.47;3.40;;;21.40;45.10;;;;;;21044357;28;20120;-17
2021/03/01 01:54:53;;;;;;;3.42;2.60;;;21.40;45.00;;;;;;21049741;28;20404;-17
2021/03/01 02:04:58;;;;;;;5.28;2.70;;;21.40;44.80;;;;;;21046717;28;20036;-18
2021/03/01 02:15:09;;;;;;;3.58;2.30;;;21.50;44.40;;;;;;21042178;28;20032;-17
2021/03/01 02:25:13;;;;;;;4.75;3.08;;;21.50;44.30;;;;;;21066966;28;20036;-17
2021/03/01 02:35:14;;;;;;;5.00;3.78;;;21.50;43.80;;;;;;21061386;28;20036;-18
2021/03/01 02:45:16;;;;;;;5.45;3.35;;;21.50;43.80;;;;;;21047603;28;20107;-17
2021/03/01 02:55:18;;;;;;;5.78;2.92;;;21.60;43.50;;;;;;21036851;28;20474;-17
2021/03/01 03:05:20;;;;;;;6.07;3.35;;;21.60;43.40;;;;;;21058887;28;20051;-17
2021/03/01 03:15:20;;;;;;;4.82;2.97;;;21.60;43.20;;;;;;21034103;28;20570;-16
2021/03/01 03:25:21;;;;;;;4.47;2.53;;;21.60;42.90;;;;;;21056705;28;20497;-16
2021/03/01 03:35:22;;;;;;;4.90;2.37;;;21.60;42.80;;;;;;21060659;28;20065;-17
2021/03/01 03:45:24;;;;;;;3.03;1.98;;;21.60;42.50;;;;;;21088871;28;20476;-18
2021/03/01 03:55:27;;;;;;;2.90;1.58;;;21.50;42.60;;;;;;21079581;28;20031;-17
2021/03/01 04:05:28;;;;;;;3.20;2.22;;;21.60;42.20;;;;;;21084923;28;20058;-15
2021/03/01 04:15:31;;;;;;;3.72;2.05;;;21.50;42.20;;;;;;21077172;28;20488;-17
2021/03/01 04:25:32;;;;;;;5.15;2.22;;;21.60;41.90;;;;;;21061149;28;20028;-17
2021/03/01 04:35:33;;;;;;;4.88;2.45;;;21.60;41.90;;;;;;21067742;28;20032;-17
2021/03/01 04:45:34;;;;;;;3.67;1.75;;;21.60;41.80;;;;;;21060371;28;20035;-17
2021/03/01 04:55:35;;;;;;;3.30;1.88;;;21.60;41.60;;;;;;21058530;28;20107;-15
2021/03/01 05:05:36;;;;;;;3.03;1.58;;;21.50;41.60;;;;;;21051828;28;20088;-17
2021/03/01 05:15:37;;;;;;;2.92;1.60;;;21.70;41.40;;;;;;21050279;28;20100;-17
2021/03/01 05:25:37;;;;;;;3.45;2.08;;;21.50;41.30;;;;;;21057165;28;20060;-16
2021/03/01 05:35:39;;;;;;;4.30;2.00;;;21.70;41.00;;;;;;21067499;28;20032;-17
2021/03/01 05:45:41;;;;;;;3.92;1.77;;;21.60;40.90;;;;;;20964156;22;20036;-19
2021/03/01 05:55:42;;;;;;;3.72;1.67;;;21.60;40.80;;;;;;20938045;28;20021;-18
2021/03/01 06:05:43;;;;;;;3.53;1.80;;;21.70;40.60;;;;;;20909803;28;20028;-20
2021/03/01 06:15:44;;;;;;;4.20;2.00;;;21.60;40.60;;;;;;20927502;28;20087;-19
2021/03/01 06:25:45;;;;;;;3.25;1.75;;;21.70;40.40;;;;;;20904416;28;20083;-17
2021/03/01 06:35:52;;;;;;;3.77;1.97;;;21.70;40.40;;;;;;20912620;28;20501;-21
2021/03/01 06:46:14;;;;;;;5.33;1.70;;;21.60;40.40;;;;;;20905181;28;20636;-16
2021/03/01 06:56:16;;;;;;;5.50;2.10;;;21.70;40.40;;;;;;20893913;28;20021;-19
2021/03/01 07:06:18;;;;;;;20.20;5.85;;;21.70;40.80;;;;;;20906850;28;20032;-17
2021/03/01 07:16:19;;;;;;;15.40;3.17;;;21.80;40.80;;;;;;20904602;28;20033;-19
2021/03/01 07:26:25;;;;;;;22.80;5.78;;;21.70;41.20;;;;;;20905403;28;20074;-19
2021/03/01 07:36:26;;;;;;;36.05;7.07;;;21.80;41.40;;;;;;20887088;28;20025;-19
2021/03/01 07:46:28;;;;;;;35.27;8.00;;;21.90;41.50;;;;;;20904367;28;20044;-19
2021/03/01 07:56:38;;;;;;;36.88;6.90;;;21.80;41.80;;;;;;20903131;28;20141;-18
2021/03/01 08:06:56;;;;;;;30.33;6.78;;;21.70;41.80;;;;;;20917267;28;20033;-19
2021/03/01 08:17:29;;;;;;;;;;;21.70;42.00;;;;;;20875674;28;20028;-21
2021/03/01 08:27:29;;;;;;;24.67;6.35;;;21.70;41.90;;;;;;20872335;28;20518;-18
2021/03/01 08:37:46;;;;;;;24.23;8.05;;;21.60;42.20;;;;;;20916915;28;20035;-16
2021/03/01 08:47:52;;;;;;;19.77;5.70;;;21.60;42.50;;;;;;20913677;28;20385;-17
2021/03/01 08:58:03;;;;;;;22.83;4.65;;;21.60;42.70;;;;;;20893897;28;20021;-19
2021/03/01 09:08:05;;;;;;;13.88;4.20;;;21.40;42.80;;;;;;20877505;28;20009;-18
2021/03/01 09:18:06;;;;;;;12.95;4.18;;;21.30;43.00;;;;;;20884856;28;20106;-18
2021/03/01 09:28:08;;;;;;;10.75;3.47;;;21.20;43.10;;;;;;20906787;28;20029;-20
2021/03/01 09:38:09;;;;;;;11.80;3.70;;;21.20;43.00;;;;;;20936845;28;20021;-21
2021/03/01 09:48:09;;;;;;;12.25;3.78;;;21.20;43.20;;;;;;20939732;28;20029;-20
2021/03/01 09:58:31;;;;;;;18.27;4.40;;;21.10;43.30;;;;;;20909267;28;20028;-20
2021/03/01 10:08:31;;;;;;;10.82;3.42;;;21.10;43.30;;;;;;20903599;28;20078;-19
2021/03/01 10:18:33;;;;;;;7.43;3.45;;;21.00;43.20;;;;;;20900773;28;20029;-18
2021/03/01 10:28:36;;;;;;;9.60;3.40;;;21.00;43.40;;;;;;20901739;28;20515;-20
2021/03/01 10:38:59;;;;;;;11.10;4.53;;;21.00;43.30;;;;;;20915027;28;20125;-20
2021/03/01 10:49:03;;;;;;;10.10;4.35;;;21.00;43.00;;;;;;20903563;28;20107;-20
2021/03/01 10:59:04;;;;;;;10.80;4.32;;;20.90;42.90;;;;;;20926338;28;20070;-21
2021/03/01 11:09:07;;;;;;;8.52;4.65;;;21.00;42.80;;;;;;20895490;28;20029;-19
2021/03/01 11:19:10;;;;;;;7.80;4.65;;;21.00;42.80;;;;;;20907518;28;20419;-18
2021/03/01 11:29:10;;;;;;;8.02;4.75;;;20.90;43.00;;;;;;20909177;28;20021;-19
2021/03/01 11:39:15;;;;;;;10.25;5.38;;;20.90;43.10;;;;;;20915161;28;20121;-18
2021/03/01 11:49:16;;;;;;;10.68;5.28;;;20.70;43.20;;;;;;20921089;28;20136;-18
2021/03/01 11:59:16;;;;;;;6.38;4.45;;;20.60;43.30;;;;;;20912490;28;20525;-20
2021/03/01 12:09:17;;;;;;;7.85;6.03;;;20.60;43.30;;;;;;20920839;28;20028;-18
2021/03/01 12:19:17;;;;;;;11.95;8.15;;;20.60;42.90;;;;;;20917381;28;20044;-19
2021/03/01 12:29:18;;;;;;;11.35;9.57;;;20.60;42.50;;;;;;20926997;28;20057;-18
2021/03/01 12:39:18;;;;;;;13.20;9.70;;;20.50;42.50;;;;;;20898369;28;20033;-22
2021/03/01 12:49:19;;;;;;;11.13;9.32;;;20.70;42.50;;;;;;20869133;28;20143;-20
2021/03/01 12:59:19;;;;;;;14.40;8.65;;;21.50;41.30;;;;;;20939066;28;20470;-20
2021/03/01 13:09:20;;;;;;;11.82;9.15;;;22.10;39.40;;;;;;20863965;28;20045;-19
2021/03/01 13:19:21;;;;;;;14.48;7.55;;;22.70;38.20;;;;;;20905624;28;20040;-19
2021/03/01 13:29:21;;;;;;;7.82;6.20;;;23.40;37.00;;;;;;20873888;28;20112;-20
2021/03/01 13:39:22;;;;;;;7.60;5.37;;;23.90;36.00;;;;;;20899053;28;20029;-19
2021/03/01 13:49:22;;;;;;;9.80;4.78;;;23.60;36.20;;;;;;20892660;28;20094;-19
2021/03/01 13:59:23;;;;;;;8.50;5.50;;;23.50;37.20;;;;;;20902501;28;20520;-20
2021/03/01 14:09:23;;;;;;;8.18;4.97;;;23.30;38.40;;;;;;20887978;28;20110;-21
2021/03/01 14:19:24;;;;;;;9.25;5.20;;;23.10;39.00;;;;;;20850810;28;20135;-19
2021/03/01 14:29:25;;;;;;;7.03;5.10;;;23.00;39.30;;;;;;20900105;28;20579;-20
2021/03/01 14:39:26;;;;;;;5.93;4.40;;;22.90;39.90;;;;;;20888992;28;20048;-18
2021/03/01 14:49:26;;;;;;;10.80;4.80;;;23.10;39.80;;;;;;20871148;28;20025;-19
2021/03/01 14:59:27;;;;;;;8.32;4.45;;;23.10;40.30;;;;;;20890925;28;20025;-19
2021/03/01 15:09:28;;;;;;;8.23;4.13;;;23.10;40.70;;;;;;20862370;28;20031;-19
2021/03/01 15:19:28;;;;;;;7.60;5.05;;;23.00;40.90;;;;;;20884925;28;20635;-20
2021/03/01 15:29:29;;;;;;;7.47;5.18;;;23.00;41.20;;;;;;20875643;28;20112;-19
2021/03/01 15:39:29;;;;;;;7.80;4.88;;;22.90;41.00;;;;;;20927266;28;20025;-18
2021/03/01 15:49:30;;;;;;;9.90;5.38;;;22.60;42.00;;;;;;20943357;28;20082;-18
2021/03/01 15:59:31;;;;;;;9.67;5.80;;;22.40;42.50;;;;;;20938362;28;20075;-18
2021/03/01 16:09:31;;;;;;;11.20;6.30;;;22.10;43.20;;;;;;20939544;28;20472;-18
2021/03/01 16:19:32;;;;;;;13.75;5.43;;;22.00;43.20;;;;;;20930906;28;20112;-18
2021/03/01 16:29:33;;;;;;;7.70;5.25;;;21.80;43.40;;;;;;20901187;28;20099;-20
2021/03/01 16:39:34;;;;;;;8.02;5.65;;;22.00;43.30;;;;;;20886671;28;20032;-18
2021/03/01 16:49:34;;;;;;;9.50;4.77;;;22.40;42.40;;;;;;20926515;28;20052;-20
2021/03/01 16:59:35;;;;;;;8.55;5.32;;;23.00;41.30;;;;;;20933130;28;20605;-18
2021/03/01 17:09:40;;;;;;;10.63;5.05;;;23.50;40.40;;;;;;20919833;28;20562;-20
2021/03/01 17:19:43;;;;;;;7.47;5.10;;;23.40;40.50;;;;;;20923182;28;20524;-20
2021/03/01 17:29:47;;;;;;;7.57;5.50;;;23.30;41.00;;;;;;20920085;28;20028;-19
2021/03/01 17:39:48;;;;;;;7.22;5.00;;;23.20;41.20;;;;;;20919102;28;20116;-18
2021/03/01 17:49:59;;;;;;;9.98;5.07;;;22.90;41.50;;;;;;20903781;22;20051;-16
2021/03/01 18:00:06;;;;;;;8.57;5.10;;;22.90;41.70;;;;;;21074725;28;20020;-17
2021/03/01 18:10:07;;;;;;;25.75;10.35;;;22.60;41.90;;;;;;21055968;28;20153;-18
2021/03/01 18:20:10;;;;;;;47.60;27.58;;;22.90;42.90;;;;;;21073220;28;20044;-16
2021/03/01 18:30:12;;;;;;;69.93;39.05;;;22.90;43.20;;;;;;21073334;28;20483;-16
2021/03/01 18:40:18;;;;;;;56.05;30.67;;;22.80;43.30;;;;;;21073862;28;20078;-18
2021/03/01 18:50:21;;;;;;;49.05;25.48;;;22.80;43.20;;;;;;21070526;28;20024;-17
2021/03/01 19:00:22;;;;;;;37.47;21.45;;;22.80;43.20;;;;;;21070461;28;20024;-17
2021/03/01 19:10:24;;;;;;;35.30;20.00;;;22.80;43.10;;;;;;21067929;28;20086;-18
2021/03/01 19:20:25;;;;;;;28.00;17.77;;;22.90;43.70;;;;;;21068513;28;20048;-18
2021/03/01 19:30:26;;;;;;;29.98;17.38;;;23.20;43.20;;;;;;21043759;28;20057;-16
2021/03/01 19:40:27;;;;;;;28.25;16.52;;;23.20;43.50;;;;;;21066165;28;20032;-17
2021/03/01 19:50:28;;;;;;;27.35;15.60;;;23.30;43.30;;;;;;21065568;28;20108;-17
2021/03/01 20:00:28;;;;;;;28.65;14.77;;;23.20;43.40;;;;;;21041587;28;20263;-17
2021/03/01 20:10:29;;;;;;;24.27;14.23;;;23.10;43.10;;;;;;21067233;28;20032;-17
2021/03/01 20:20:30;;;;;;;21.13;13.82;;;23.10;43.50;;;;;;21055992;28;20103;-17
2021/03/01 20:30:30;;;;;;;20.73;13.43;;;23.10;43.30;;;;;;21086465;28;20028;-17
2021/03/01 20:40:31;;;;;;;20.80;13.32;;;23.00;43.30;;;;;;21085158;28;20470;-18
2021/03/01 20:50:32;;;;;;;19.48;12.80;;;23.00;42.70;;;;;;21079751;28;20028;-17
2021/03/01 21:00:32;;;;;;;17.60;12.65;;;23.00;42.70;;;;;;21090558;28;20024;-17
2021/03/01 21:10:34;;;;;;;17.13;11.68;;;23.00;42.30;;;;;;21095280;28;20038;-18
2021/03/01 21:20:35;;;;;;;14.32;10.73;;;22.90;42.40;;;;;;21076975;28;20408;-17
2021/03/01 21:30:35;;;;;;;15.25;9.90;;;23.00;42.20;;;;;;21075368;28;20058;-17
2021/03/01 21:40:36;;;;;;;13.82;9.52;;;22.80;42.40;;;;;;21073976;28;20028;-16
2021/03/01 21:50:37;;;;;;;16.48;10.73;;;22.60;42.60;;;;;;21073852;28;20067;-16
2021/03/01 22:00:42;;;;;;;13.00;9.85;;;22.40;43.00;;;;;;21082537;28;20027;-17
2021/03/01 22:10:43;;;;;;;11.32;9.60;;;22.30;43.20;;;;;;21058820;28;20480;-16
2021/03/01 22:20:44;;;;;;;12.70;9.27;;;22.20;43.30;;;;;;21075445;28;20395;-15
2021/03/01 22:30:54;;;;;;;14.60;9.93;;;22.00;43.20;;;;;;21074032;28;20475;-18
2021/03/01 22:40:55;;;;;;;11.57;8.65;;;22.00;43.30;;;;;;21073320;28;20056;-17
2021/03/01 22:50:56;;;;;;;11.43;8.57;;;21.80;43.30;;;;;;21070951;28;20043;-17
2021/03/01 23:00:56;;;;;;;16.23;9.85;;;21.70;43.30;;;;;;21069770;28;20031;-16
2021/03/01 23:10:57;;;;;;;20.60;11.85;;;21.60;43.70;;;;;;21070015;28;20027;-17
2021/03/01 23:20:57;;;;;;;21.63;11.00;;;21.40;44.40;;;;;;21075536;28;20039;-17
2021/03/01 23:30:58;;;;;;;15.18;10.25;;;21.40;44.70;;;;;;21072550;28;20023;-16
2021/03/01 23:41:02;;;;;;;27.50;15.03;;;21.30;44.90;;;;;;21062816;28;20124;-17
2021/03/01 23:51:04;;;;;;;33.53;16.40;;;21.10;45.30;;;;;;21068527;28;20032;-16
